sensor_id;sensor_type;location;lat;lon;timestamp;P1;durP1;ratioP1;P2;durP2;ratioP2
24147;SDS011;12309;51.450;-2.624;2023-04-24T00:01:40;13.77;;;7.50;;
24147;SDS011;12309;51.450;-2.624;2023-04-24T00:04:05;12.97;;;7.33;;
24147;SDS011;12309;51.450;-2.624;2023-04-24T00:06:32;15.63;;;7.80;;
24147;SDS011;12309;51.450;-2.624;2023-04-24T00:09:01;14.20;;;7.43;;
24147;SDS011;12309;51.450;-2.624;2023-04-24T00:11:28;13.23;;;7.20;;
24147;SDS011;12309;51.450;-2.624;2023-04-24T00:13:55;15.23;;;7.90;;
24147;SDS011;12309;51.450;-2.624;2023-04-24T00:16:21;11.77;;;7.13;;
24147;SDS011;12309;51.450;-2.624;2023-04-24T00:18:47;10.30;;;6.83;;
24147;SDS011;12309;51.450;-2.624;2023-04-24T00:21:13;15.37;;;7.60;;
24147;SDS011;12309;51.450;-2.624;2023-04-24T00:23:41;12.40;;;7.40;;
24147;SDS011;12309;51.450;-2.624;2023-04-24T00:26:07;16.30;;;6.83;;
24147;SDS011;12309;51.450;-2.624;2023-04-24T00:28:33;12.17;;;7.03;;
24147;SDS011;12309;51.450;-2.624;2023-04-24T00:30:58;14.30;;;6.70;;
24147;SDS011;12309;51.450;-2.624;2023-04-24T00:33:24;10.67;;;6.33;;
24147;SDS011;12309;51.450;-2.624;2023-04-24T00:35:49;12.23;;;6.57;;
24147;SDS011;12309;51.450;-2.624;2023-04-24T00:38:15;16.20;;;6.73;;
24147;SDS011;12309;51.450;-2.624;2023-04-24T00:40:40;11.17;;;6.87;;
24147;SDS011;12309;51.450;-2.624;2023-04-24T00:43:06;9.70;;;5.83;;
24147;SDS011;12309;51.450;-2.624;2023-04-24T00:45:32;11.17;;;6.00;;
24147;SDS011;12309;51.450;-2.624;2023-04-24T00:47:57;8.33;;;5.80;;
24147;SDS011;12309;51.450;-2.624;2023-04-24T00:50:24;12.00;;;6.00;;
24147;SDS011;12309;51.450;-2.624;2023-04-24T00:52:51;10.70;;;5.70;;
24147;SDS011;12309;51.450;-2.624;2023-04-24T00:55:17;9.50;;;5.90;;
24147;SDS011;12309;51.450;-2.624;2023-04-24T00:57:43;9.00;;;5.57;;
24147;SDS011;12309;51.450;-2.624;2023-04-24T01:00:10;9.90;;;5.43;;
24147;SDS011;12309;51.450;-2.624;2023-04-24T01:02:38;8.37;;;5.77;;
24147;SDS011;12309;51.450;-2.624;2023-04-24T01:05:11;10.30;;;5.53;;
24147;SDS011;12309;51.450;-2.624;2023-04-24T01:07:38;13.20;;;6.00;;
24147;SDS011;12309;51.450;-2.624;2023-04-24T01:10:05;9.93;;;5.60;;
24147;SDS011;12309;51.450;-2.624;2023-04-24T01:12:33;8.67;;;5.07;;
24147;SDS011;12309;51.450;-2.624;2023-04-24T01:14:58;7.47;;;5.07;;
24147;SDS011;12309;51.450;-2.624;2023-04-24T01:17:24;8.97;;;4.47;;
24147;SDS011;12309;51.450;-2.624;2023-04-24T01:19:50;10.50;;;5.20;;
24147;SDS011;12309;51.450;-2.624;2023-04-24T01:22:18;12.17;;;5.20;;
24147;SDS011;12309;51.450;-2.624;2023-04-24T01:24:45;9.20;;;4.90;;
24147;SDS011;12309;51.450;-2.624;2023-04-24T01:27:11;9.47;;;4.57;;
24147;SDS011;12309;51.450;-2.624;2023-04-24T01:29:38;9.17;;;4.80;;
24147;SDS011;12309;51.450;-2.624;2023-04-24T01:32:04;8.90;;;4.50;;
24147;SDS011;12309;51.450;-2.624;2023-04-24T01:34:30;7.93;;;4.47;;
24147;SDS011;12309;51.450;-2.624;2023-04-24T01:36:56;9.57;;;4.63;;
24147;SDS011;12309;51.450;-2.624;2023-04-24T01:39:22;7.60;;;4.53;;
24147;SDS011;12309;51.450;-2.624;2023-04-24T01:41:53;11.03;;;5.00;;
24147;SDS011;12309;51.450;-2.624;2023-04-24T01:44:19;12.43;;;5.00;;
24147;SDS011;12309;51.450;-2.624;2023-04-24T01:46:45;9.97;;;5.23;;
24147;SDS011;12309;51.450;-2.624;2023-04-24T01:49:11;8.93;;;5.43;;
24147;SDS011;12309;51.450;-2.624;2023-04-24T01:51:37;17.10;;;5.70;;
24147;SDS011;12309;51.450;-2.624;2023-04-24T01:54:02;10.10;;;5.70;;
24147;SDS011;12309;51.450;-2.624;2023-04-24T01:56:28;11.53;;;6.10;;
24147;SDS011;12309;51.450;-2.624;2023-04-24T01:58:55;17.10;;;6.03;;
24147;SDS011;12309;51.450;-2.624;2023-04-24T02:01:23;8.93;;;5.77;;
24147;SDS011;12309;51.450;-2.624;2023-04-24T02:03:49;14.00;;;6.80;;
24147;SDS011;12309;51.450;-2.624;2023-04-24T02:06:15;14.37;;;6.63;;
24147;SDS011;12309;51.450;-2.624;2023-04-24T02:08:41;9.47;;;6.23;;
24147;SDS011;12309;51.450;-2.624;2023-04-24T02:11:08;14.20;;;6.40;;
24147;SDS011;12309;51.450;-2.624;2023-04-24T02:13:34;8.93;;;5.80;;
24147;SDS011;12309;51.450;-2.624;2023-04-24T02:15:59;13.40;;;6.30;;
24147;SDS011;12309;51.450;-2.624;2023-04-24T02:18:25;10.20;;;5.60;;
24147;SDS011;12309;51.450;-2.624;2023-04-24T02:20:51;15.10;;;6.77;;
24147;SDS011;12309;51.450;-2.624;2023-04-24T02:23:16;13.23;;;6.47;;
24147;SDS011;12309;51.450;-2.624;2023-04-24T02:25:42;10.77;;;6.00;;
24147;SDS011;12309;51.450;-2.624;2023-04-24T02:28:07;16.23;;;6.90;;
24147;SDS011;12309;51.450;-2.624;2023-04-24T02:30:33;11.93;;;6.93;;
24147;SDS011;12309;51.450;-2.624;2023-04-24T02:32:59;16.23;;;7.83;;
24147;SDS011;12309;51.450;-2.624;2023-04-24T02:35:24;11.17;;;7.00;;
24147;SDS011;12309;51.450;-2.624;2023-04-24T02:37:50;11.03;;;6.70;;
24147;SDS011;12309;51.450;-2.624;2023-04-24T02:40:16;18.17;;;7.63;;
24147;SDS011;12309;51.450;-2.624;2023-04-24T02:42:41;13.70;;;6.77;;
24147;SDS011;12309;51.450;-2.624;2023-04-24T02:45:07;13.60;;;7.30;;
24147;SDS011;12309;51.450;-2.624;2023-04-24T02:47:33;10.87;;;6.60;;
24147;SDS011;12309;51.450;-2.624;2023-04-24T02:49:58;12.23;;;7.00;;
24147;SDS011;12309;51.450;-2.624;2023-04-24T02:52:24;14.80;;;7.37;;
24147;SDS011;12309;51.450;-2.624;2023-04-24T02:54:50;13.10;;;6.50;;
24147;SDS011;12309;51.450;-2.624;2023-04-24T02:57:15;14.90;;;7.27;;
24147;SDS011;12309;51.450;-2.624;2023-04-24T02:59:41;12.57;;;7.03;;
24147;SDS011;12309;51.450;-2.624;2023-04-24T03:02:06;14.50;;;7.30;;
24147;SDS011;12309;51.450;-2.624;2023-04-24T03:04:32;14.83;;;7.70;;
24147;SDS011;12309;51.450;-2.624;2023-04-24T03:06:58;13.40;;;7.50;;
24147;SDS011;12309;51.450;-2.624;2023-04-24T03:09:23;14.03;;;7.70;;
24147;SDS011;12309;51.450;-2.624;2023-04-24T03:11:49;10.60;;;6.73;;
24147;SDS011;12309;51.450;-2.624;2023-04-24T03:14:15;15.10;;;7.03;;
24147;SDS011;12309;51.450;-2.624;2023-04-24T03:16:41;12.43;;;6.90;;
24147;SDS011;12309;51.450;-2.624;2023-04-24T03:19:07;13.47;;;6.83;;
24147;SDS011;12309;51.450;-2.624;2023-04-24T03:21:33;14.97;;;7.17;;
24147;SDS011;12309;51.450;-2.624;2023-04-24T03:24:00;12.23;;;7.23;;
24147;SDS011;12309;51.450;-2.624;2023-04-24T03:26:26;12.20;;;7.10;;
24147;SDS011;12309;51.450;-2.624;2023-04-24T03:28:51;12.40;;;7.47;;
24147;SDS011;12309;51.450;-2.624;2023-04-24T03:31:17;16.13;;;7.77;;
24147;SDS011;12309;51.450;-2.624;2023-04-24T03:33:44;14.57;;;7.70;;
24147;SDS011;12309;51.450;-2.624;2023-04-24T03:36:09;15.50;;;7.50;;
24147;SDS011;12309;51.450;-2.624;2023-04-24T03:38:35;12.97;;;7.20;;
24147;SDS011;12309;51.450;-2.624;2023-04-24T03:41:00;14.23;;;6.90;;
24147;SDS011;12309;51.450;-2.624;2023-04-24T03:43:26;13.57;;;7.13;;
24147;SDS011;12309;51.450;-2.624;2023-04-24T03:45:52;14.13;;;6.90;;
24147;SDS011;12309;51.450;-2.624;2023-04-24T03:48:18;14.57;;;7.40;;
24147;SDS011;12309;51.450;-2.624;2023-04-24T03:50:43;17.17;;;7.30;;
24147;SDS011;12309;51.450;-2.624;2023-04-24T03:53:09;14.63;;;7.23;;
24147;SDS011;12309;51.450;-2.624;2023-04-24T03:55:35;11.47;;;7.27;;
24147;SDS011;12309;51.450;-2.624;2023-04-24T03:58:01;15.40;;;7.80;;
24147;SDS011;12309;51.450;-2.624;2023-04-24T04:00:27;13.97;;;7.30;;
24147;SDS011;12309;51.450;-2.624;2023-04-24T04:02:53;13.47;;;7.23;;
24147;SDS011;12309;51.450;-2.624;2023-04-24T04:05:18;23.37;;;7.83;;
24147;SDS011;12309;51.450;-2.624;2023-04-24T04:07:44;14.50;;;7.40;;
24147;SDS011;12309;51.450;-2.624;2023-04-24T04:10:10;14.67;;;7.03;;
24147;SDS011;12309;51.450;-2.624;2023-04-24T04:12:35;13.57;;;6.87;;
24147;SDS011;12309;51.450;-2.624;2023-04-24T04:15:01;11.80;;;7.00;;
24147;SDS011;12309;51.450;-2.624;2023-04-24T04:17:27;11.73;;;6.90;;
24147;SDS011;12309;51.450;-2.624;2023-04-24T04:19:52;17.00;;;6.80;;
24147;SDS011;12309;51.450;-2.624;2023-04-24T04:22:18;13.27;;;6.87;;
24147;SDS011;12309;51.450;-2.624;2023-04-24T04:24:44;15.83;;;7.30;;
24147;SDS011;12309;51.450;-2.624;2023-04-24T04:27:11;14.17;;;7.03;;
24147;SDS011;12309;51.450;-2.624;2023-04-24T04:29:37;13.23;;;6.97;;
24147;SDS011;12309;51.450;-2.624;2023-04-24T04:32:03;15.60;;;6.67;;
24147;SDS011;12309;51.450;-2.624;2023-04-24T04:34:29;10.50;;;6.90;;
24147;SDS011;12309;51.450;-2.624;2023-04-24T04:36:54;11.73;;;6.43;;
24147;SDS011;12309;51.450;-2.624;2023-04-24T04:39:20;10.73;;;6.23;;
24147;SDS011;12309;51.450;-2.624;2023-04-24T04:41:46;12.70;;;6.57;;
24147;SDS011;12309;51.450;-2.624;2023-04-24T04:44:13;11.43;;;6.23;;
24147;SDS011;12309;51.450;-2.624;2023-04-24T04:46:39;15.63;;;7.03;;
24147;SDS011;12309;51.450;-2.624;2023-04-24T04:49:06;16.50;;;7.03;;
24147;SDS011;12309;51.450;-2.624;2023-04-24T04:51:33;12.10;;;7.03;;
24147;SDS011;12309;51.450;-2.624;2023-04-24T04:53:59;12.90;;;7.00;;
24147;SDS011;12309;51.450;-2.624;2023-04-24T04:56:25;12.10;;;6.53;;
24147;SDS011;12309;51.450;-2.624;2023-04-24T04:58:51;11.87;;;7.13;;
24147;SDS011;12309;51.450;-2.624;2023-04-24T05:01:16;17.27;;;7.03;;
24147;SDS011;12309;51.450;-2.624;2023-04-24T05:03:42;14.77;;;7.13;;
24147;SDS011;12309;51.450;-2.624;2023-04-24T05:06:08;12.87;;;7.67;;
24147;SDS011;12309;51.450;-2.624;2023-04-24T05:08:33;11.43;;;7.10;;
24147;SDS011;12309;51.450;-2.624;2023-04-24T05:10:59;11.63;;;7.40;;
24147;SDS011;12309;51.450;-2.624;2023-04-24T05:13:25;21.73;;;7.73;;
24147;SDS011;12309;51.450;-2.624;2023-04-24T05:15:51;13.53;;;7.33;;
24147;SDS011;12309;51.450;-2.624;2023-04-24T05:18:17;13.87;;;7.13;;
24147;SDS011;12309;51.450;-2.624;2023-04-24T05:20:43;15.13;;;7.20;;
24147;SDS011;12309;51.450;-2.624;2023-04-24T05:23:09;15.37;;;7.30;;
24147;SDS011;12309;51.450;-2.624;2023-04-24T05:25:35;14.70;;;7.53;;
24147;SDS011;12309;51.450;-2.624;2023-04-24T05:28:01;14.63;;;6.60;;
24147;SDS011;12309;51.450;-2.624;2023-04-24T05:30:27;9.97;;;6.33;;
24147;SDS011;12309;51.450;-2.624;2023-04-24T05:32:53;13.60;;;7.20;;
24147;SDS011;12309;51.450;-2.624;2023-04-24T05:35:19;17.13;;;6.77;;
24147;SDS011;12309;51.450;-2.624;2023-04-24T05:37:44;15.53;;;6.73;;
24147;SDS011;12309;51.450;-2.624;2023-04-24T05:40:10;13.07;;;6.53;;
24147;SDS011;12309;51.450;-2.624;2023-04-24T05:42:36;16.37;;;7.10;;
24147;SDS011;12309;51.450;-2.624;2023-04-24T05:45:02;14.60;;;7.37;;
24147;SDS011;12309;51.450;-2.624;2023-04-24T05:47:28;13.10;;;7.67;;
24147;SDS011;12309;51.450;-2.624;2023-04-24T05:49:54;13.30;;;7.10;;
24147;SDS011;12309;51.450;-2.624;2023-04-24T05:52:20;15.90;;;7.43;;
24147;SDS011;12309;51.450;-2.624;2023-04-24T05:54:46;12.60;;;7.07;;
24147;SDS011;12309;51.450;-2.624;2023-04-24T05:57:11;15.47;;;8.63;;
24147;SDS011;12309;51.450;-2.624;2023-04-24T05:59:37;15.33;;;8.17;;
24147;SDS011;12309;51.450;-2.624;2023-04-24T06:02:03;16.00;;;8.53;;
24147;SDS011;12309;51.450;-2.624;2023-04-24T06:04:29;13.77;;;8.90;;
24147;SDS011;12309;51.450;-2.624;2023-04-24T06:06:54;16.33;;;9.40;;
24147;SDS011;12309;51.450;-2.624;2023-04-24T06:09:24;17.83;;;9.57;;
24147;SDS011;12309;51.450;-2.624;2023-04-24T06:11:50;15.77;;;8.70;;
24147;SDS011;12309;51.450;-2.624;2023-04-24T06:14:18;15.30;;;9.03;;
24147;SDS011;12309;51.450;-2.624;2023-04-24T06:16:44;19.60;;;9.43;;
24147;SDS011;12309;51.450;-2.624;2023-04-24T06:19:09;17.70;;;9.30;;
24147;SDS011;12309;51.450;-2.624;2023-04-24T06:21:35;17.47;;;9.87;;
24147;SDS011;12309;51.450;-2.624;2023-04-24T06:24:01;16.23;;;9.63;;
24147;SDS011;12309;51.450;-2.624;2023-04-24T06:26:27;12.43;;;8.73;;
24147;SDS011;12309;51.450;-2.624;2023-04-24T06:28:52;12.03;;;8.33;;
24147;SDS011;12309;51.450;-2.624;2023-04-24T06:31:23;12.87;;;8.57;;
24147;SDS011;12309;51.450;-2.624;2023-04-24T06:33:49;17.23;;;9.30;;
24147;SDS011;12309;51.450;-2.624;2023-04-24T06:36:15;17.70;;;9.00;;
24147;SDS011;12309;51.450;-2.624;2023-04-24T06:38:41;20.83;;;9.43;;
24147;SDS011;12309;51.450;-2.624;2023-04-24T06:41:07;22.90;;;11.60;;
24147;SDS011;12309;51.450;-2.624;2023-04-24T06:43:32;20.80;;;11.23;;
24147;SDS011;12309;51.450;-2.624;2023-04-24T06:45:58;14.30;;;9.20;;
24147;SDS011;12309;51.450;-2.624;2023-04-24T06:48:25;17.03;;;9.43;;
24147;SDS011;12309;51.450;-2.624;2023-04-24T06:50:51;15.70;;;8.73;;
24147;SDS011;12309;51.450;-2.624;2023-04-24T06:53:17;16.30;;;9.33;;
24147;SDS011;12309;51.450;-2.624;2023-04-24T06:55:42;14.53;;;9.47;;
24147;SDS011;12309;51.450;-2.624;2023-04-24T06:58:10;15.10;;;9.37;;
24147;SDS011;12309;51.450;-2.624;2023-04-24T07:00:36;22.60;;;10.60;;
24147;SDS011;12309;51.450;-2.624;2023-04-24T07:03:01;18.27;;;8.87;;
24147;SDS011;12309;51.450;-2.624;2023-04-24T07:05:28;13.90;;;9.20;;
24147;SDS011;12309;51.450;-2.624;2023-04-24T07:07:54;16.93;;;8.97;;
24147;SDS011;12309;51.450;-2.624;2023-04-24T07:10:23;14.73;;;9.03;;
24147;SDS011;12309;51.450;-2.624;2023-04-24T07:12:49;19.30;;;9.60;;
24147;SDS011;12309;51.450;-2.624;2023-04-24T07:15:15;22.87;;;9.60;;
24147;SDS011;12309;51.450;-2.624;2023-04-24T07:17:41;18.37;;;9.67;;
24147;SDS011;12309;51.450;-2.624;2023-04-24T07:20:10;20.73;;;9.27;;
24147;SDS011;12309;51.450;-2.624;2023-04-24T07:22:37;17.63;;;9.57;;
24147;SDS011;12309;51.450;-2.624;2023-04-24T07:25:04;16.07;;;9.20;;
24147;SDS011;12309;51.450;-2.624;2023-04-24T07:27:30;19.07;;;9.40;;
24147;SDS011;12309;51.450;-2.624;2023-04-24T07:29:55;13.57;;;8.57;;
24147;SDS011;12309;51.450;-2.624;2023-04-24T07:32:21;13.70;;;8.70;;
24147;SDS011;12309;51.450;-2.624;2023-04-24T07:34:46;15.07;;;9.13;;
24147;SDS011;12309;51.450;-2.624;2023-04-24T07:37:12;13.63;;;8.40;;
24147;SDS011;12309;51.450;-2.624;2023-04-24T07:39:38;17.27;;;9.43;;
24147;SDS011;12309;51.450;-2.624;2023-04-24T07:42:03;16.10;;;9.47;;
24147;SDS011;12309;51.450;-2.624;2023-04-24T07:44:29;18.37;;;9.43;;
24147;SDS011;12309;51.450;-2.624;2023-04-24T07:46:55;16.07;;;9.23;;
24147;SDS011;12309;51.450;-2.624;2023-04-24T07:49:21;14.57;;;8.90;;
24147;SDS011;12309;51.450;-2.624;2023-04-24T07:51:46;20.70;;;9.73;;
24147;SDS011;12309;51.450;-2.624;2023-04-24T07:54:12;18.53;;;9.07;;
24147;SDS011;12309;51.450;-2.624;2023-04-24T07:56:38;15.10;;;9.13;;
24147;SDS011;12309;51.450;-2.624;2023-04-24T07:59:04;14.97;;;8.90;;
24147;SDS011;12309;51.450;-2.624;2023-04-24T08:01:30;18.90;;;8.87;;
24147;SDS011;12309;51.450;-2.624;2023-04-24T08:03:56;15.43;;;9.00;;
24147;SDS011;12309;51.450;-2.624;2023-04-24T08:06:21;18.50;;;8.87;;
24147;SDS011;12309;51.450;-2.624;2023-04-24T08:08:47;18.10;;;8.63;;
24147;SDS011;12309;51.450;-2.624;2023-04-24T08:11:13;17.17;;;8.90;;
24147;SDS011;12309;51.450;-2.624;2023-04-24T08:13:38;16.40;;;8.40;;
24147;SDS011;12309;51.450;-2.624;2023-04-24T08:16:04;12.17;;;7.60;;
24147;SDS011;12309;51.450;-2.624;2023-04-24T08:18:30;11.53;;;8.00;;
24147;SDS011;12309;51.450;-2.624;2023-04-24T08:20:55;15.07;;;8.17;;
24147;SDS011;12309;51.450;-2.624;2023-04-24T08:23:26;13.47;;;6.57;;
24147;SDS011;12309;51.450;-2.624;2023-04-24T08:25:52;11.17;;;6.53;;
24147;SDS011;12309;51.450;-2.624;2023-04-24T08:28:17;15.23;;;6.70;;
24147;SDS011;12309;51.450;-2.624;2023-04-24T08:30:45;15.80;;;7.70;;
24147;SDS011;12309;51.450;-2.624;2023-04-24T08:33:12;11.77;;;7.40;;
24147;SDS011;12309;51.450;-2.624;2023-04-24T08:35:38;17.83;;;9.23;;
24147;SDS011;12309;51.450;-2.624;2023-04-24T08:38:04;20.50;;;9.47;;
24147;SDS011;12309;51.450;-2.624;2023-04-24T08:40:31;14.13;;;7.77;;
24147;SDS011;12309;51.450;-2.624;2023-04-24T08:42:59;11.00;;;7.40;;
24147;SDS011;12309;51.450;-2.624;2023-04-24T08:45:25;17.60;;;7.40;;
24147;SDS011;12309;51.450;-2.624;2023-04-24T08:47:54;14.80;;;7.93;;
24147;SDS011;12309;51.450;-2.624;2023-04-24T08:50:21;13.80;;;8.40;;
24147;SDS011;12309;51.450;-2.624;2023-04-24T08:52:48;13.73;;;9.00;;
24147;SDS011;12309;51.450;-2.624;2023-04-24T08:55:15;14.00;;;8.57;;
24147;SDS011;12309;51.450;-2.624;2023-04-24T08:57:43;13.37;;;8.17;;
24147;SDS011;12309;51.450;-2.624;2023-04-24T09:00:10;15.67;;;8.80;;
24147;SDS011;12309;51.450;-2.624;2023-04-24T09:02:36;12.70;;;8.57;;
24147;SDS011;12309;51.450;-2.624;2023-04-24T09:05:06;15.33;;;8.40;;
24147;SDS011;12309;51.450;-2.624;2023-04-24T09:07:34;15.00;;;9.57;;
24147;SDS011;12309;51.450;-2.624;2023-04-24T09:10:01;19.13;;;9.67;;
24147;SDS011;12309;51.450;-2.624;2023-04-24T09:12:27;15.53;;;9.40;;
24147;SDS011;12309;51.450;-2.624;2023-04-24T09:14:54;12.90;;;9.23;;
24147;SDS011;12309;51.450;-2.624;2023-04-24T09:17:21;15.93;;;10.23;;
24147;SDS011;12309;51.450;-2.624;2023-04-24T09:19:47;12.10;;;9.03;;
24147;SDS011;12309;51.450;-2.624;2023-04-24T09:22:13;17.83;;;10.70;;
24147;SDS011;12309;51.450;-2.624;2023-04-24T09:24:40;17.87;;;10.27;;
24147;SDS011;12309;51.450;-2.624;2023-04-24T09:27:06;16.33;;;10.50;;
24147;SDS011;12309;51.450;-2.624;2023-04-24T09:29:32;15.13;;;9.63;;
24147;SDS011;12309;51.450;-2.624;2023-04-24T09:31:58;22.63;;;10.33;;
24147;SDS011;12309;51.450;-2.624;2023-04-24T09:34:25;18.90;;;9.67;;
24147;SDS011;12309;51.450;-2.624;2023-04-24T09:36:51;14.90;;;8.30;;
24147;SDS011;12309;51.450;-2.624;2023-04-24T09:39:18;15.83;;;9.77;;
24147;SDS011;12309;51.450;-2.624;2023-04-24T09:41:51;15.53;;;9.53;;
24147;SDS011;12309;51.450;-2.624;2023-04-24T09:44:18;14.57;;;9.97;;
24147;SDS011;12309;51.450;-2.624;2023-04-24T09:46:49;18.00;;;10.67;;
24147;SDS011;12309;51.450;-2.624;2023-04-24T09:49:22;18.33;;;10.37;;
24147;SDS011;12309;51.450;-2.624;2023-04-24T09:51:50;17.70;;;9.97;;
24147;SDS011;12309;51.450;-2.624;2023-04-24T09:54:16;15.40;;;10.50;;
24147;SDS011;12309;51.450;-2.624;2023-04-24T09:56:45;16.00;;;9.53;;
24147;SDS011;12309;51.450;-2.624;2023-04-24T09:59:15;19.83;;;11.00;;
24147;SDS011;12309;51.450;-2.624;2023-04-24T10:01:43;17.97;;;9.77;;
24147;SDS011;12309;51.450;-2.624;2023-04-24T10:04:20;16.07;;;9.63;;
24147;SDS011;12309;51.450;-2.624;2023-04-24T10:06:47;15.93;;;9.70;;
24147;SDS011;12309;51.450;-2.624;2023-04-24T10:09:14;14.63;;;9.97;;
24147;SDS011;12309;51.450;-2.624;2023-04-24T10:11:41;14.13;;;9.63;;
24147;SDS011;12309;51.450;-2.624;2023-04-24T10:14:13;14.70;;;9.30;;
24147;SDS011;12309;51.450;-2.624;2023-04-24T10:16:43;12.33;;;9.40;;
24147;SDS011;12309;51.450;-2.624;2023-04-24T10:19:11;13.17;;;9.50;;
24147;SDS011;12309;51.450;-2.624;2023-04-24T10:21:38;13.80;;;9.30;;
24147;SDS011;12309;51.450;-2.624;2023-04-24T10:24:14;13.30;;;8.93;;
24147;SDS011;12309;51.450;-2.624;2023-04-24T10:26:41;12.20;;;9.00;;
24147;SDS011;12309;51.450;-2.624;2023-04-24T10:29:11;15.03;;;9.20;;
24147;SDS011;12309;51.450;-2.624;2023-04-24T10:31:38;13.60;;;8.40;;
24147;SDS011;12309;51.450;-2.624;2023-04-24T10:34:04;11.63;;;8.77;;
24147;SDS011;12309;51.450;-2.624;2023-04-24T10:36:31;11.53;;;8.77;;
24147;SDS011;12309;51.450;-2.624;2023-04-24T10:38:59;11.97;;;8.83;;
24147;SDS011;12309;51.450;-2.624;2023-04-24T10:41:27;14.37;;;9.07;;
24147;SDS011;12309;51.450;-2.624;2023-04-24T10:44:10;11.30;;;8.37;;
24147;SDS011;12309;51.450;-2.624;2023-04-24T10:46:38;14.53;;;9.47;;
24147;SDS011;12309;51.450;-2.624;2023-04-24T10:49:07;14.83;;;8.80;;
24147;SDS011;12309;51.450;-2.624;2023-04-24T10:51:51;14.00;;;9.13;;
24147;SDS011;12309;51.450;-2.624;2023-04-24T10:54:25;13.63;;;9.60;;
24147;SDS011;12309;51.450;-2.624;2023-04-24T10:56:52;19.40;;;9.10;;
24147;SDS011;12309;51.450;-2.624;2023-04-24T10:59:24;13.97;;;9.50;;
24147;SDS011;12309;51.450;-2.624;2023-04-24T11:01:52;13.90;;;9.03;;
24147;SDS011;12309;51.450;-2.624;2023-04-24T11:04:28;14.57;;;9.57;;
24147;SDS011;12309;51.450;-2.624;2023-04-24T11:06:58;14.80;;;9.37;;
24147;SDS011;12309;51.450;-2.624;2023-04-24T11:09:26;11.07;;;8.27;;
24147;SDS011;12309;51.450;-2.624;2023-04-24T11:12:02;14.60;;;9.13;;
24147;SDS011;12309;51.450;-2.624;2023-04-24T11:14:42;12.87;;;8.23;;
24147;SDS011;12309;51.450;-2.624;2023-04-24T11:17:38;13.20;;;7.33;;
24147;SDS011;12309;51.450;-2.624;2023-04-24T11:20:08;10.67;;;7.43;;
24147;SDS011;12309;51.450;-2.624;2023-04-24T11:22:36;10.37;;;6.77;;
24147;SDS011;12309;51.450;-2.624;2023-04-24T11:25:05;10.67;;;6.83;;
24147;SDS011;12309;51.450;-2.624;2023-04-24T11:27:37;8.30;;;6.33;;
24147;SDS011;12309;51.450;-2.624;2023-04-24T11:30:03;11.20;;;6.60;;
24147;SDS011;12309;51.450;-2.624;2023-04-24T11:37:40;7.93;;;5.77;;
24147;SDS011;12309;51.450;-2.624;2023-04-24T11:40:14;7.43;;;5.50;;
24147;SDS011;12309;51.450;-2.624;2023-04-24T11:42:42;7.63;;;5.50;;
24147;SDS011;12309;51.450;-2.624;2023-04-24T11:45:10;6.40;;;4.87;;
24147;SDS011;12309;51.450;-2.624;2023-04-24T11:47:37;6.70;;;5.03;;
24147;SDS011;12309;51.450;-2.624;2023-04-24T11:50:04;6.27;;;4.40;;
24147;SDS011;12309;51.450;-2.624;2023-04-24T11:52:30;7.27;;;4.67;;
24147;SDS011;12309;51.450;-2.624;2023-04-24T11:54:56;7.50;;;5.00;;
24147;SDS011;12309;51.450;-2.624;2023-04-24T11:57:23;7.27;;;5.10;;
24147;SDS011;12309;51.450;-2.624;2023-04-24T11:59:52;9.10;;;4.87;;
24147;SDS011;12309;51.450;-2.624;2023-04-24T12:02:22;7.50;;;4.93;;
24147;SDS011;12309;51.450;-2.624;2023-04-24T12:04:52;9.10;;;5.70;;
24147;SDS011;12309;51.450;-2.624;2023-04-24T12:07:19;6.53;;;4.63;;
24147;SDS011;12309;51.450;-2.624;2023-04-24T12:09:46;10.33;;;4.97;;
24147;SDS011;12309;51.450;-2.624;2023-04-24T12:12:13;9.73;;;4.77;;
24147;SDS011;12309;51.450;-2.624;2023-04-24T12:14:47;9.93;;;5.03;;
24147;SDS011;12309;51.450;-2.624;2023-04-24T12:17:31;5.87;;;3.70;;
24147;SDS011;12309;51.450;-2.624;2023-04-24T12:19:58;5.00;;;3.57;;
24147;SDS011;12309;51.450;-2.624;2023-04-24T12:22:28;4.63;;;3.47;;
24147;SDS011;12309;51.450;-2.624;2023-04-24T12:25:09;5.07;;;3.03;;
24147;SDS011;12309;51.450;-2.624;2023-04-24T12:27:36;5.97;;;3.30;;
24147;SDS011;12309;51.450;-2.624;2023-04-24T12:30:03;4.43;;;3.17;;
24147;SDS011;12309;51.450;-2.624;2023-04-24T12:32:30;4.30;;;3.30;;
24147;SDS011;12309;51.450;-2.624;2023-04-24T12:34:56;4.30;;;2.63;;
24147;SDS011;12309;51.450;-2.624;2023-04-24T12:37:23;3.77;;;2.73;;
24147;SDS011;12309;51.450;-2.624;2023-04-24T12:40:00;4.40;;;3.10;;
24147;SDS011;12309;51.450;-2.624;2023-04-24T12:42:28;3.70;;;3.10;;
24147;SDS011;12309;51.450;-2.624;2023-04-24T12:44:58;6.30;;;3.22;;
24147;SDS011;12309;51.450;-2.624;2023-04-24T12:47:26;5.43;;;3.50;;
24147;SDS011;12309;51.450;-2.624;2023-04-24T12:49:52;4.18;;;3.10;;
24147;SDS011;12309;51.450;-2.624;2023-04-24T12:52:18;4.78;;;2.90;;
24147;SDS011;12309;51.450;-2.624;2023-04-24T12:54:47;5.15;;;3.00;;
24147;SDS011;12309;51.450;-2.624;2023-04-24T12:57:12;4.47;;;3.30;;
24147;SDS011;12309;51.450;-2.624;2023-04-24T12:59:38;4.50;;;3.30;;
24147;SDS011;12309;51.450;-2.624;2023-04-24T13:02:05;5.60;;;3.15;;
24147;SDS011;12309;51.450;-2.624;2023-04-24T13:04:31;4.50;;;3.58;;
24147;SDS011;12309;51.450;-2.624;2023-04-24T13:06:57;6.32;;;3.55;;
24147;SDS011;12309;51.450;-2.624;2023-04-24T13:09:23;5.07;;;3.63;;
24147;SDS011;12309;51.450;-2.624;2023-04-24T13:11:49;7.78;;;3.60;;
24147;SDS011;12309;51.450;-2.624;2023-04-24T13:14:15;5.20;;;3.17;;
24147;SDS011;12309;51.450;-2.624;2023-04-24T13:16:40;6.38;;;4.03;;
24147;SDS011;12309;51.450;-2.624;2023-04-24T13:19:06;5.82;;;3.70;;
24147;SDS011;12309;51.450;-2.624;2023-04-24T13:21:32;4.93;;;3.83;;
24147;SDS011;12309;51.450;-2.624;2023-04-24T13:23:57;8.13;;;3.85;;
24147;SDS011;12309;51.450;-2.624;2023-04-24T13:26:23;7.88;;;4.22;;
24147;SDS011;12309;51.450;-2.624;2023-04-24T13:28:49;8.25;;;4.30;;
24147;SDS011;12309;51.450;-2.624;2023-04-24T13:31:15;7.00;;;4.53;;
24147;SDS011;12309;51.450;-2.624;2023-04-24T13:33:41;5.75;;;4.18;;
24147;SDS011;12309;51.450;-2.624;2023-04-24T13:36:06;6.50;;;4.40;;
24147;SDS011;12309;51.450;-2.624;2023-04-24T13:38:32;6.82;;;3.88;;
24147;SDS011;12309;51.450;-2.624;2023-04-24T13:40:59;7.28;;;4.38;;
24147;SDS011;12309;51.450;-2.624;2023-04-24T13:43:25;6.53;;;4.50;;
24147;SDS011;12309;51.450;-2.624;2023-04-24T13:45:50;8.30;;;3.92;;
24147;SDS011;12309;51.450;-2.624;2023-04-24T13:48:16;6.28;;;4.40;;
24147;SDS011;12309;51.450;-2.624;2023-04-24T13:50:43;8.40;;;4.55;;
24147;SDS011;12309;51.450;-2.624;2023-04-24T13:53:09;6.70;;;4.18;;
24147;SDS011;12309;51.450;-2.624;2023-04-24T13:55:35;7.85;;;5.22;;
24147;SDS011;12309;51.450;-2.624;2023-04-24T13:58:01;6.97;;;4.35;;
24147;SDS011;12309;51.450;-2.624;2023-04-24T14:00:27;5.53;;;4.30;;
24147;SDS011;12309;51.450;-2.624;2023-04-24T14:02:53;8.30;;;4.93;;
24147;SDS011;12309;51.450;-2.624;2023-04-24T14:05:19;5.97;;;4.40;;
24147;SDS011;12309;51.450;-2.624;2023-04-24T14:07:46;10.07;;;4.50;;
24147;SDS011;12309;51.450;-2.624;2023-04-24T14:10:12;6.50;;;4.50;;
24147;SDS011;12309;51.450;-2.624;2023-04-24T14:12:37;7.70;;;4.70;;
24147;SDS011;12309;51.450;-2.624;2023-04-24T14:15:03;6.60;;;4.27;;
24147;SDS011;12309;51.450;-2.624;2023-04-24T14:17:30;7.90;;;4.83;;
24147;SDS011;12309;51.450;-2.624;2023-04-24T14:19:56;9.37;;;4.63;;
24147;SDS011;12309;51.450;-2.624;2023-04-24T14:22:22;7.97;;;4.70;;
24147;SDS011;12309;51.450;-2.624;2023-04-24T14:24:47;6.37;;;4.20;;
24147;SDS011;12309;51.450;-2.624;2023-04-24T14:27:13;5.57;;;4.30;;